sensor_id;sensor_type;location;lat;lon;timestamp;P1;durP1;ratioP1;P2;durP2;ratioP2
20855;SDS011;63058;49.424;8.420;2023-07-24T00:01:58;2.63;;;2.03;;
20855;SDS011;63058;49.424;8.420;2023-07-24T00:04:23;2.47;;;1.75;;
20855;SDS011;63058;49.424;8.420;2023-07-24T00:06:49;2.53;;;1.80;;
20855;SDS011;63058;49.424;8.420;2023-07-24T00:09:15;2.58;;;1.98;;
20855;SDS011;63058;49.424;8.420;2023-07-24T00:11:40;2.45;;;1.60;;
20855;SDS011;63058;49.424;8.420;2023-07-24T00:14:06;2.10;;;1.83;;
20855;SDS011;63058;49.424;8.420;2023-07-24T00:16:31;2.58;;;2.10;;
20855;SDS011;63058;49.424;8.420;2023-07-24T00:18:57;3.85;;;2.40;;
20855;SDS011;63058;49.424;8.420;2023-07-24T00:21:22;3.47;;;1.92;;
20855;SDS011;63058;49.424;8.420;2023-07-24T00:23:48;4.57;;;1.98;;
20855;SDS011;63058;49.424;8.420;2023-07-24T00:26:13;2.25;;;1.63;;
20855;SDS011;63058;49.424;8.420;2023-07-24T00:28:39;2.53;;;2.03;;
20855;SDS011;63058;49.424;8.420;2023-07-24T00:31:05;3.35;;;2.35;;
20855;SDS011;63058;49.424;8.420;2023-07-24T00:33:30;2.78;;;2.03;;
20855;SDS011;63058;49.424;8.420;2023-07-24T00:35:56;2.45;;;2.15;;
20855;SDS011;63058;49.424;8.420;2023-07-24T00:38:25;2.70;;;2.28;;
20855;SDS011;63058;49.424;8.420;2023-07-24T00:40:50;5.43;;;2.25;;
20855;SDS011;63058;49.424;8.420;2023-07-24T00:43:16;2.40;;;1.80;;
20855;SDS011;63058;49.424;8.420;2023-07-24T00:45:42;2.38;;;1.83;;
20855;SDS011;63058;49.424;8.420;2023-07-24T00:48:08;3.25;;;2.20;;
20855;SDS011;63058;49.424;8.420;2023-07-24T00:50:35;2.78;;;1.83;;
20855;SDS011;63058;49.424;8.420;2023-07-24T00:53:02;3.40;;;2.13;;
20855;SDS011;63058;49.424;8.420;2023-07-24T00:55:28;3.72;;;2.10;;
20855;SDS011;63058;49.424;8.420;2023-07-24T00:57:54;3.10;;;2.13;;
20855;SDS011;63058;49.424;8.420;2023-07-24T01:00:22;3.78;;;2.10;;
20855;SDS011;63058;49.424;8.420;2023-07-24T01:02:48;3.15;;;2.10;;
20855;SDS011;63058;49.424;8.420;2023-07-24T01:05:14;3.30;;;2.05;;
20855;SDS011;63058;49.424;8.420;2023-07-24T01:07:40;3.65;;;2.03;;
20855;SDS011;63058;49.424;8.420;2023-07-24T01:10:05;2.75;;;2.17;;
20855;SDS011;63058;49.424;8.420;2023-07-24T01:12:51;2.38;;;2.15;;
20855;SDS011;63058;49.424;8.420;2023-07-24T01:15:28;2.47;;;1.85;;
20855;SDS011;63058;49.424;8.420;2023-07-24T01:17:59;3.15;;;1.88;;
20855;SDS011;63058;49.424;8.420;2023-07-24T01:20:38;2.13;;;1.83;;
20855;SDS011;63058;49.424;8.420;2023-07-24T01:26:02;2.13;;;1.70;;
20855;SDS011;63058;49.424;8.420;2023-07-24T01:28:28;2.72;;;2.03;;
20855;SDS011;63058;49.424;8.420;2023-07-24T01:30:54;3.25;;;1.90;;
20855;SDS011;63058;49.424;8.420;2023-07-24T01:33:20;3.53;;;2.00;;
20855;SDS011;63058;49.424;8.420;2023-07-24T01:35:54;2.53;;;1.95;;
20855;SDS011;63058;49.424;8.420;2023-07-24T01:38:22;2.30;;;1.70;;
20855;SDS011;63058;49.424;8.420;2023-07-24T01:40:50;2.72;;;1.90;;
20855;SDS011;63058;49.424;8.420;2023-07-24T01:43:18;4.10;;;2.15;;
20855;SDS011;63058;49.424;8.420;2023-07-24T01:45:43;2.92;;;2.10;;
20855;SDS011;63058;49.424;8.420;2023-07-24T01:48:09;3.42;;;2.13;;
20855;SDS011;63058;49.424;8.420;2023-07-24T01:50:34;2.60;;;2.03;;
20855;SDS011;63058;49.424;8.420;2023-07-24T01:53:00;3.25;;;2.28;;
20855;SDS011;63058;49.424;8.420;2023-07-24T01:55:25;2.88;;;2.10;;
20855;SDS011;63058;49.424;8.420;2023-07-24T01:57:51;4.18;;;2.55;;
20855;SDS011;63058;49.424;8.420;2023-07-24T02:00:16;3.80;;;2.40;;
20855;SDS011;63058;49.424;8.420;2023-07-24T02:02:42;3.30;;;2.33;;
20855;SDS011;63058;49.424;8.420;2023-07-24T02:05:08;3.22;;;2.30;;
20855;SDS011;63058;49.424;8.420;2023-07-24T02:07:33;3.13;;;2.30;;
20855;SDS011;63058;49.424;8.420;2023-07-24T02:09:59;2.58;;;2.20;;
20855;SDS011;63058;49.424;8.420;2023-07-24T02:12:25;2.83;;;2.28;;
20855;SDS011;63058;49.424;8.420;2023-07-24T02:14:50;4.38;;;2.45;;
20855;SDS011;63058;49.424;8.420;2023-07-24T02:17:17;2.42;;;2.15;;
20855;SDS011;63058;49.424;8.420;2023-07-24T02:19:43;3.63;;;2.25;;
20855;SDS011;63058;49.424;8.420;2023-07-24T02:22:09;3.92;;;2.38;;
20855;SDS011;63058;49.424;8.420;2023-07-24T02:24:34;3.22;;;2.42;;
20855;SDS011;63058;49.424;8.420;2023-07-24T02:27:00;3.22;;;2.45;;
20855;SDS011;63058;49.424;8.420;2023-07-24T02:29:26;3.17;;;2.40;;
20855;SDS011;63058;49.424;8.420;2023-07-24T02:31:52;4.25;;;2.55;;
20855;SDS011;63058;49.424;8.420;2023-07-24T02:34:18;5.13;;;2.80;;
20855;SDS011;63058;49.424;8.420;2023-07-24T02:36:44;3.83;;;2.60;;
20855;SDS011;63058;49.424;8.420;2023-07-24T02:39:09;3.97;;;2.90;;
20855;SDS011;63058;49.424;8.420;2023-07-24T02:41:35;3.67;;;2.80;;
20855;SDS011;63058;49.424;8.420;2023-07-24T02:44:02;6.35;;;2.67;;
20855;SDS011;63058;49.424;8.420;2023-07-24T02:46:28;3.53;;;2.55;;
20855;SDS011;63058;49.424;8.420;2023-07-24T02:48:55;4.43;;;2.83;;
20855;SDS011;63058;49.424;8.420;2023-07-24T02:51:21;3.95;;;2.60;;
20855;SDS011;63058;49.424;8.420;2023-07-24T02:53:46;3.28;;;2.67;;
20855;SDS011;63058;49.424;8.420;2023-07-24T02:56:12;2.83;;;2.28;;
20855;SDS011;63058;49.424;8.420;2023-07-24T02:58:37;5.13;;;2.95;;
20855;SDS011;63058;49.424;8.420;2023-07-24T03:01:05;4.28;;;3.10;;
20855;SDS011;63058;49.424;8.420;2023-07-24T03:03:32;3.22;;;2.45;;
20855;SDS011;63058;49.424;8.420;2023-07-24T03:05:58;5.18;;;2.88;;
20855;SDS011;63058;49.424;8.420;2023-07-24T03:08:24;3.33;;;2.47;;
20855;SDS011;63058;49.424;8.420;2023-07-24T03:10:49;3.22;;;2.50;;
20855;SDS011;63058;49.424;8.420;2023-07-24T03:13:15;6.30;;;2.78;;
20855;SDS011;63058;49.424;8.420;2023-07-24T03:15:41;3.80;;;2.55;;
20855;SDS011;63058;49.424;8.420;2023-07-24T03:18:06;4.18;;;2.72;;
20855;SDS011;63058;49.424;8.420;2023-07-24T03:20:32;5.88;;;2.80;;
20855;SDS011;63058;49.424;8.420;2023-07-24T03:22:57;3.50;;;2.58;;
20855;SDS011;63058;49.424;8.420;2023-07-24T03:25:23;4.15;;;2.72;;
20855;SDS011;63058;49.424;8.420;2023-07-24T03:27:48;4.28;;;2.60;;
20855;SDS011;63058;49.424;8.420;2023-07-24T03:30:14;4.63;;;3.00;;
20855;SDS011;63058;49.424;8.420;2023-07-24T03:32:40;4.22;;;2.17;;
20855;SDS011;63058;49.424;8.420;2023-07-24T03:35:05;2.97;;;2.58;;
20855;SDS011;63058;49.424;8.420;2023-07-24T03:37:33;3.58;;;2.42;;
20855;SDS011;63058;49.424;8.420;2023-07-24T03:39:59;4.82;;;3.15;;
20855;SDS011;63058;49.424;8.420;2023-07-24T03:42:29;4.60;;;3.08;;
20855;SDS011;63058;49.424;8.420;2023-07-24T03:44:56;3.63;;;2.67;;
20855;SDS011;63058;49.424;8.420;2023-07-24T03:47:22;3.63;;;2.53;;
20855;SDS011;63058;49.424;8.420;2023-07-24T03:49:48;5.05;;;3.08;;
20855;SDS011;63058;49.424;8.420;2023-07-24T03:52:15;4.22;;;2.55;;
20855;SDS011;63058;49.424;8.420;2023-07-24T03:54:40;4.00;;;2.70;;
20855;SDS011;63058;49.424;8.420;2023-07-24T03:57:06;4.20;;;2.78;;
20855;SDS011;63058;49.424;8.420;2023-07-24T03:59:32;4.72;;;2.50;;
20855;SDS011;63058;49.424;8.420;2023-07-24T04:01:57;4.68;;;3.08;;
20855;SDS011;63058;49.424;8.420;2023-07-24T04:04:23;4.63;;;2.75;;
20855;SDS011;63058;49.424;8.420;2023-07-24T04:06:49;4.50;;;2.85;;
20855;SDS011;63058;49.424;8.420;2023-07-24T04:09:14;3.80;;;2.70;;
20855;SDS011;63058;49.424;8.420;2023-07-24T04:11:40;4.82;;;3.30;;
20855;SDS011;63058;49.424;8.420;2023-07-24T04:14:06;6.70;;;3.60;;
20855;SDS011;63058;49.424;8.420;2023-07-24T04:16:32;4.20;;;3.10;;
20855;SDS011;63058;49.424;8.420;2023-07-24T04:18:57;3.30;;;2.75;;
20855;SDS011;63058;49.424;8.420;2023-07-24T04:21:23;6.20;;;2.88;;
20855;SDS011;63058;49.424;8.420;2023-07-24T04:23:48;3.65;;;2.63;;
20855;SDS011;63058;49.424;8.420;2023-07-24T04:26:14;4.35;;;3.10;;
20855;SDS011;63058;49.424;8.420;2023-07-24T04:28:39;4.18;;;3.00;;
20855;SDS011;63058;49.424;8.420;2023-07-24T04:31:08;4.30;;;3.22;;
20855;SDS011;63058;49.424;8.420;2023-07-24T04:33:34;4.55;;;2.75;;
20855;SDS011;63058;49.424;8.420;2023-07-24T04:35:59;4.35;;;2.65;;
20855;SDS011;63058;49.424;8.420;2023-07-24T04:38:25;4.40;;;2.80;;
20855;SDS011;63058;49.424;8.420;2023-07-24T04:40:51;3.78;;;2.83;;
20855;SDS011;63058;49.424;8.420;2023-07-24T04:43:16;5.45;;;2.65;;
20855;SDS011;63058;49.424;8.420;2023-07-24T04:45:42;3.40;;;2.63;;
20855;SDS011;63058;49.424;8.420;2023-07-24T04:48:07;3.90;;;2.70;;
20855;SDS011;63058;49.424;8.420;2023-07-24T04:50:33;5.50;;;3.30;;
20855;SDS011;63058;49.424;8.420;2023-07-24T04:52:58;4.82;;;3.20;;
20855;SDS011;63058;49.424;8.420;2023-07-24T04:55:24;5.70;;;3.20;;
20855;SDS011;63058;49.424;8.420;2023-07-24T04:57:50;3.50;;;2.95;;
20855;SDS011;63058;49.424;8.420;2023-07-24T05:00:15;3.90;;;2.88;;
20855;SDS011;63058;49.424;8.420;2023-07-24T05:02:41;2.83;;;2.38;;
20855;SDS011;63058;49.424;8.420;2023-07-24T05:05:07;3.70;;;3.10;;
20855;SDS011;63058;49.424;8.420;2023-07-24T05:07:33;3.53;;;2.80;;
20855;SDS011;63058;49.424;8.420;2023-07-24T05:09:58;4.18;;;3.00;;
20855;SDS011;63058;49.424;8.420;2023-07-24T05:12:24;3.70;;;2.67;;
20855;SDS011;63058;49.424;8.420;2023-07-24T05:14:50;4.45;;;2.80;;
20855;SDS011;63058;49.424;8.420;2023-07-24T05:17:15;3.95;;;3.00;;
20855;SDS011;63058;49.424;8.420;2023-07-24T05:19:41;4.97;;;3.00;;
20855;SDS011;63058;49.424;8.420;2023-07-24T05:22:07;3.90;;;2.83;;
20855;SDS011;63058;49.424;8.420;2023-07-24T05:24:33;3.40;;;2.53;;
20855;SDS011;63058;49.424;8.420;2023-07-24T05:26:58;4.22;;;3.17;;
20855;SDS011;63058;49.424;8.420;2023-07-24T05:29:24;4.97;;;3.17;;
20855;SDS011;63058;49.424;8.420;2023-07-24T05:31:49;4.30;;;3.08;;
20855;SDS011;63058;49.424;8.420;2023-07-24T05:34:15;4.38;;;3.35;;
20855;SDS011;63058;49.424;8.420;2023-07-24T05:36:41;4.10;;;2.78;;
20855;SDS011;63058;49.424;8.420;2023-07-24T05:39:06;4.13;;;3.05;;
20855;SDS011;63058;49.424;8.420;2023-07-24T05:41:32;4.65;;;3.03;;
20855;SDS011;63058;49.424;8.420;2023-07-24T05:43:57;4.15;;;3.10;;
20855;SDS011;63058;49.424;8.420;2023-07-24T05:46:23;4.95;;;2.83;;
20855;SDS011;63058;49.424;8.420;2023-07-24T05:48:48;4.18;;;3.05;;
20855;SDS011;63058;49.424;8.420;2023-07-24T05:51:14;4.30;;;3.30;;
20855;SDS011;63058;49.424;8.420;2023-07-24T05:53:39;5.28;;;3.15;;
20855;SDS011;63058;49.424;8.420;2023-07-24T05:56:05;5.15;;;3.67;;
20855;SDS011;63058;49.424;8.420;2023-07-24T05:58:31;4.72;;;3.22;;
20855;SDS011;63058;49.424;8.420;2023-07-24T06:00:56;4.82;;;3.40;;
20855;SDS011;63058;49.424;8.420;2023-07-24T06:03:22;4.65;;;3.33;;
20855;SDS011;63058;49.424;8.420;2023-07-24T06:05:55;5.03;;;3.15;;
20855;SDS011;63058;49.424;8.420;2023-07-24T06:08:20;4.20;;;3.22;;
20855;SDS011;63058;49.424;8.420;2023-07-24T06:10:47;5.22;;;3.28;;
20855;SDS011;63058;49.424;8.420;2023-07-24T06:13:14;3.70;;;3.03;;
20855;SDS011;63058;49.424;8.420;2023-07-24T06:15:40;5.13;;;3.60;;
20855;SDS011;63058;49.424;8.420;2023-07-24T06:18:06;5.82;;;4.15;;
20855;SDS011;63058;49.424;8.420;2023-07-24T06:20:31;6.45;;;3.50;;
20855;SDS011;63058;49.424;8.420;2023-07-24T06:22:57;5.95;;;3.47;;
20855;SDS011;63058;49.424;8.420;2023-07-24T06:25:22;4.88;;;3.25;;
20855;SDS011;63058;49.424;8.420;2023-07-24T06:27:48;7.80;;;3.70;;
20855;SDS011;63058;49.424;8.420;2023-07-24T06:30:14;5.28;;;3.35;;
20855;SDS011;63058;49.424;8.420;2023-07-24T06:32:40;4.63;;;3.60;;
20855;SDS011;63058;49.424;8.420;2023-07-24T06:35:06;4.22;;;3.25;;
20855;SDS011;63058;49.424;8.420;2023-07-24T06:37:31;4.35;;;3.20;;
20855;SDS011;63058;49.424;8.420;2023-07-24T06:39:57;10.95;;;3.95;;
20855;SDS011;63058;49.424;8.420;2023-07-24T06:42:23;5.55;;;3.60;;
20855;SDS011;63058;49.424;8.420;2023-07-24T06:44:48;6.43;;;3.70;;
20855;SDS011;63058;49.424;8.420;2023-07-24T06:47:14;5.38;;;3.47;;
20855;SDS011;63058;49.424;8.420;2023-07-24T06:49:39;5.05;;;3.63;;
20855;SDS011;63058;49.424;8.420;2023-07-24T06:52:05;6.53;;;3.78;;
20855;SDS011;63058;49.424;8.420;2023-07-24T06:54:31;7.50;;;3.67;;
20855;SDS011;63058;49.424;8.420;2023-07-24T06:56:56;5.60;;;3.70;;
20855;SDS011;63058;49.424;8.420;2023-07-24T06:59:22;9.32;;;4.25;;
20855;SDS011;63058;49.424;8.420;2023-07-24T07:01:48;6.47;;;3.28;;
20855;SDS011;63058;49.424;8.420;2023-07-24T07:04:14;5.75;;;4.07;;
20855;SDS011;63058;49.424;8.420;2023-07-24T07:06:39;4.75;;;3.40;;
20855;SDS011;63058;49.424;8.420;2023-07-24T07:09:05;5.93;;;3.53;;
20855;SDS011;63058;49.424;8.420;2023-07-24T07:11:31;4.55;;;3.42;;
20855;SDS011;63058;49.424;8.420;2023-07-24T07:13:57;7.82;;;3.67;;
20855;SDS011;63058;49.424;8.420;2023-07-24T07:16:22;6.30;;;3.83;;
20855;SDS011;63058;49.424;8.420;2023-07-24T07:18:48;7.55;;;4.55;;
20855;SDS011;63058;49.424;8.420;2023-07-24T07:21:13;7.18;;;4.05;;
20855;SDS011;63058;49.424;8.420;2023-07-24T07:23:39;5.93;;;4.20;;
20855;SDS011;63058;49.424;8.420;2023-07-24T07:26:05;5.65;;;3.63;;
20855;SDS011;63058;49.424;8.420;2023-07-24T07:28:30;7.10;;;4.20;;
20855;SDS011;63058;49.424;8.420;2023-07-24T07:30:56;5.50;;;4.20;;
20855;SDS011;63058;49.424;8.420;2023-07-24T07:33:21;6.45;;;3.50;;
20855;SDS011;63058;49.424;8.420;2023-07-24T07:35:47;6.68;;;3.95;;
20855;SDS011;63058;49.424;8.420;2023-07-24T07:38:12;5.45;;;3.97;;
20855;SDS011;63058;49.424;8.420;2023-07-24T07:40:38;5.40;;;3.70;;
20855;SDS011;63058;49.424;8.420;2023-07-24T07:43:04;4.65;;;3.60;;
20855;SDS011;63058;49.424;8.420;2023-07-24T07:45:30;6.00;;;3.72;;
20855;SDS011;63058;49.424;8.420;2023-07-24T07:47:55;9.43;;;3.58;;
20855;SDS011;63058;49.424;8.420;2023-07-24T07:50:21;6.22;;;3.83;;
20855;SDS011;63058;49.424;8.420;2023-07-24T07:52:50;8.07;;;3.95;;
20855;SDS011;63058;49.424;8.420;2023-07-24T07:55:17;5.03;;;3.72;;
20855;SDS011;63058;49.424;8.420;2023-07-24T07:57:43;4.30;;;3.28;;
20855;SDS011;63058;49.424;8.420;2023-07-24T08:00:09;4.38;;;3.65;;
20855;SDS011;63058;49.424;8.420;2023-07-24T08:02:35;7.00;;;4.15;;
20855;SDS011;63058;49.424;8.420;2023-07-24T08:05:04;5.40;;;3.78;;
20855;SDS011;63058;49.424;8.420;2023-07-24T08:07:33;5.28;;;3.63;;
20855;SDS011;63058;49.424;8.420;2023-07-24T08:09:59;5.18;;;3.60;;
20855;SDS011;63058;49.424;8.420;2023-07-24T08:12:24;4.68;;;3.63;;
20855;SDS011;63058;49.424;8.420;2023-07-24T08:14:50;10.63;;;4.10;;
20855;SDS011;63058;49.424;8.420;2023-07-24T08:17:15;5.95;;;3.60;;
20855;SDS011;63058;49.424;8.420;2023-07-24T08:19:42;6.18;;;3.92;;
20855;SDS011;63058;49.424;8.420;2023-07-24T08:22:08;4.93;;;3.63;;
20855;SDS011;63058;49.424;8.420;2023-07-24T08:24:34;5.03;;;3.63;;
20855;SDS011;63058;49.424;8.420;2023-07-24T08:27:00;5.25;;;4.10;;
20855;SDS011;63058;49.424;8.420;2023-07-24T08:29:26;5.40;;;3.72;;
20855;SDS011;63058;49.424;8.420;2023-07-24T08:31:52;4.75;;;3.50;;
20855;SDS011;63058;49.424;8.420;2023-07-24T08:34:18;3.78;;;3.30;;
20855;SDS011;63058;49.424;8.420;2023-07-24T08:36:43;8.10;;;3.90;;
20855;SDS011;63058;49.424;8.420;2023-07-24T08:39:09;7.35;;;3.67;;
20855;SDS011;63058;49.424;8.420;2023-07-24T08:41:34;6.15;;;4.07;;
20855;SDS011;63058;49.424;8.420;2023-07-24T08:44:02;5.38;;;4.05;;
20855;SDS011;63058;49.424;8.420;2023-07-24T08:46:30;6.43;;;3.58;;
20855;SDS011;63058;49.424;8.420;2023-07-24T08:48:56;5.22;;;3.63;;
20855;SDS011;63058;49.424;8.420;2023-07-24T08:51:22;5.55;;;3.67;;
20855;SDS011;63058;49.424;8.420;2023-07-24T08:53:49;5.03;;;3.45;;
20855;SDS011;63058;49.424;8.420;2023-07-24T08:56:14;7.05;;;4.18;;
20855;SDS011;63058;49.424;8.420;2023-07-24T08:58:40;4.93;;;3.05;;
20855;SDS011;63058;49.424;8.420;2023-07-24T09:01:07;4.93;;;3.60;;
20855;SDS011;63058;49.424;8.420;2023-07-24T09:03:33;6.50;;;3.83;;
20855;SDS011;63058;49.424;8.420;2023-07-24T09:06:00;7.68;;;3.80;;
20855;SDS011;63058;49.424;8.420;2023-07-24T09:08:39;4.90;;;3.35;;
20855;SDS011;63058;49.424;8.420;2023-07-24T09:11:06;8.88;;;3.35;;
20855;SDS011;63058;49.424;8.420;2023-07-24T09:13:34;6.38;;;3.13;;
20855;SDS011;63058;49.424;8.420;2023-07-24T09:16:01;4.45;;;3.20;;
20855;SDS011;63058;49.424;8.420;2023-07-24T09:18:27;5.30;;;3.47;;
20855;SDS011;63058;49.424;8.420;2023-07-24T09:21:07;4.15;;;3.25;;
20855;SDS011;63058;49.424;8.420;2023-07-24T09:23:33;4.55;;;3.10;;
20855;SDS011;63058;49.424;8.420;2023-07-24T09:25:59;4.85;;;3.13;;
20855;SDS011;63058;49.424;8.420;2023-07-24T09:28:29;6.13;;;3.22;;
20855;SDS011;63058;49.424;8.420;2023-07-24T09:30:56;4.68;;;3.50;;
20855;SDS011;63058;49.424;8.420;2023-07-24T09:33:23;4.18;;;3.33;;
20855;SDS011;63058;49.424;8.420;2023-07-24T09:36:00;4.03;;;3.10;;
20855;SDS011;63058;49.424;8.420;2023-07-24T09:38:26;4.25;;;2.97;;
20855;SDS011;63058;49.424;8.420;2023-07-24T09:40:52;3.42;;;2.90;;
20855;SDS011;63058;49.424;8.420;2023-07-24T09:45:47;3.53;;;3.08;;
20855;SDS011;63058;49.424;8.420;2023-07-24T09:48:14;3.30;;;3.00;;
20855;SDS011;63058;49.424;8.420;2023-07-24T09:50:42;4.47;;;3.13;;
20855;SDS011;63058;49.424;8.420;2023-07-24T09:53:12;4.20;;;3.20;;
20855;SDS011;63058;49.424;8.420;2023-07-24T09:55:47;4.22;;;3.28;;
20855;SDS011;63058;49.424;8.420;2023-07-24T09:58:19;5.22;;;3.47;;
20855;SDS011;63058;49.424;8.420;2023-07-24T10:00:47;4.60;;;3.25;;
20855;SDS011;63058;49.424;8.420;2023-07-24T10:03:14;4.50;;;3.60;;
20855;SDS011;63058;49.424;8.420;2023-07-24T10:05:40;4.47;;;3.20;;
20855;SDS011;63058;49.424;8.420;2023-07-24T10:08:08;5.22;;;3.45;;
20855;SDS011;63058;49.424;8.420;2023-07-24T10:10:34;4.18;;;3.28;;
20855;SDS011;63058;49.424;8.420;2023-07-24T10:13:00;7.38;;;3.50;;
20855;SDS011;63058;49.424;8.420;2023-07-24T10:15:26;6.65;;;3.70;;
20855;SDS011;63058;49.424;8.420;2023-07-24T10:18:00;6.40;;;3.80;;
20855;SDS011;63058;49.424;8.420;2023-07-24T10:20:32;9.25;;;3.45;;
20855;SDS011;63058;49.424;8.420;2023-07-24T10:23:02;5.72;;;3.38;;
20855;SDS011;63058;49.424;8.420;2023-07-24T10:25:31;4.43;;;3.45;;
20855;SDS011;63058;49.424;8.420;2023-07-24T10:28:01;4.43;;;3.17;;
20855;SDS011;63058;49.424;8.420;2023-07-24T10:30:39;6.40;;;3.40;;
20855;SDS011;63058;49.424;8.420;2023-07-24T10:35:45;5.25;;;3.42;;
20855;SDS011;63058;49.424;8.420;2023-07-24T10:38:35;4.63;;;3.40;;
20855;SDS011;63058;49.424;8.420;2023-07-24T10:41:02;6.25;;;2.83;;
20855;SDS011;63058;49.424;8.420;2023-07-24T10:43:39;4.30;;;3.42;;
20855;SDS011;63058;49.424;8.420;2023-07-24T10:46:08;4.43;;;3.15;;
20855;SDS011;63058;49.424;8.420;2023-07-24T10:48:34;4.97;;;3.08;;
20855;SDS011;63058;49.424;8.420;2023-07-24T10:51:05;4.57;;;3.35;;
20855;SDS011;63058;49.424;8.420;2023-07-24T10:53:32;4.13;;;3.50;;
20855;SDS011;63058;49.424;8.420;2023-07-24T10:56:00;3.75;;;2.70;;
20855;SDS011;63058;49.424;8.420;2023-07-24T10:58:26;4.00;;;3.30;;
20855;SDS011;63058;49.424;8.420;2023-07-24T11:00:52;6.85;;;3.03;;
20855;SDS011;63058;49.424;8.420;2023-07-24T11:03:18;5.40;;;3.15;;
20855;SDS011;63058;49.424;8.420;2023-07-24T11:05:45;4.07;;;3.05;;
20855;SDS011;63058;49.424;8.420;2023-07-24T11:08:15;2.78;;;2.45;;
20855;SDS011;63058;49.424;8.420;2023-07-24T11:10:51;4.47;;;2.97;;
20855;SDS011;63058;49.424;8.420;2023-07-24T11:13:19;4.90;;;3.03;;
20855;SDS011;63058;49.424;8.420;2023-07-24T11:15:46;7.20;;;3.28;;
20855;SDS011;63058;49.424;8.420;2023-07-24T11:18:12;6.57;;;3.10;;
20855;SDS011;63058;49.424;8.420;2023-07-24T11:20:43;2.60;;;2.40;;
20855;SDS011;63058;49.424;8.420;2023-07-24T11:23:10;3.60;;;2.80;;
20855;SDS011;63058;49.424;8.420;2023-07-24T11:25:36;4.13;;;2.95;;
20855;SDS011;63058;49.424;8.420;2023-07-24T11:28:04;4.30;;;3.15;;
20855;SDS011;63058;49.424;8.420;2023-07-24T11:30:33;3.30;;;2.95;;
20855;SDS011;63058;49.424;8.420;2023-07-24T11:33:01;3.58;;;3.20;;
20855;SDS011;63058;49.424;8.420;2023-07-24T11:35:28;6.07;;;2.95;;
20855;SDS011;63058;49.424;8.420;2023-07-24T11:37:54;3.97;;;2.95;;
20855;SDS011;63058;49.424;8.420;2023-07-24T11:40:19;4.65;;;3.55;;
20855;SDS011;63058;49.424;8.420;2023-07-24T11:42:46;4.45;;;3.70;;
20855;SDS011;63058;49.424;8.420;2023-07-24T11:45:13;4.55;;;3.58;;
20855;SDS011;63058;49.424;8.420;2023-07-24T11:47:46;4.22;;;3.50;;
20855;SDS011;63058;49.424;8.420;2023-07-24T11:50:13;3.70;;;2.95;;
20855;SDS011;63058;49.424;8.420;2023-07-24T11:52:40;4.07;;;3.17;;
20855;SDS011;63058;49.424;8.420;2023-07-24T11:55:10;3.90;;;3.05;;
20855;SDS011;63058;49.424;8.420;2023-07-24T11:57:37;7.18;;;4.43;;
20855;SDS011;63058;49.424;8.420;2023-07-24T12:00:04;7.25;;;3.83;;
20855;SDS011;63058;49.424;8.420;2023-07-24T12:02:31;5.75;;;3.83;;
20855;SDS011;63058;49.424;8.420;2023-07-24T12:04:58;5.43;;;3.10;;
20855;SDS011;63058;49.424;8.420;2023-07-24T12:07:28;4.25;;;3.58;;
20855;SDS011;63058;49.424;8.420;2023-07-24T12:09:59;5.35;;;3.45;;
20855;SDS011;63058;49.424;8.420;2023-07-24T12:12:25;4.50;;;3.60;;
20855;SDS011;63058;49.424;8.420;2023-07-24T12:15:01;6.05;;;3.17;;
20855;SDS011;63058;49.424;8.420;2023-07-24T12:17:26;4.45;;;3.30;;
20855;SDS011;63058;49.424;8.420;2023-07-24T12:19:52;6.82;;;3.58;;
20855;SDS011;63058;49.424;8.420;2023-07-24T12:22:17;5.40;;;3.75;;
20855;SDS011;63058;49.424;8.420;2023-07-24T12:24:43;4.40;;;3.42;;
20855;SDS011;63058;49.424;8.420;2023-07-24T12:27:09;5.53;;;3.35;;
20855;SDS011;63058;49.424;8.420;2023-07-24T12:29:35;5.70;;;4.15;;
20855;SDS011;63058;49.424;8.420;2023-07-24T12:32:00;4.95;;;3.38;;
20855;SDS011;63058;49.424;8.420;2023-07-24T12:34:26;3.65;;;3.20;;
20855;SDS011;63058;49.424;8.420;2023-07-24T12:36:51;5.20;;;3.42;;
20855;SDS011;63058;49.424;8.420;2023-07-24T12:39:17;5.75;;;4.28;;
20855;SDS011;63058;49.424;8.420;2023-07-24T12:41:43;5.13;;;3.53;;
20855;SDS011;63058;49.424;8.420;2023-07-24T12:44:08;5.03;;;3.60;;
20855;SDS011;63058;49.424;8.420;2023-07-24T12:46:34;6.57;;;4.07;;
20855;SDS011;63058;49.424;8.420;2023-07-24T12:48:59;7.57;;;4.18;;
20855;SDS011;63058;49.424;8.420;2023-07-24T12:51:25;5.38;;;3.85;;
20855;SDS011;63058;49.424;8.420;2023-07-24T12:53:50;6.05;;;3.97;;
20855;SDS011;63058;49.424;8.420;2023-07-24T12:56:16;5.32;;;3.70;;
20855;SDS011;63058;49.424;8.420;2023-07-24T12:58:41;5.93;;;4.03;;
20855;SDS011;63058;49.424;8.420;2023-07-24T13:01:09;4.07;;;3.33;;
20855;SDS011;63058;49.424;8.420;2023-07-24T13:03:34;4.85;;;3.47;;
20855;SDS011;63058;49.424;8.420;2023-07-24T13:06:00;4.15;;;3.30;;
20855;SDS011;63058;49.424;8.420;2023-07-24T13:08:25;5.45;;;4.22;;
20855;SDS011;63058;49.424;8.420;2023-07-24T13:10:51;4.78;;;3.60;;
20855;SDS011;63058;49.424;8.420;2023-07-24T13:13:17;5.45;;;3.72;;
20855;SDS011;63058;49.424;8.420;2023-07-24T13:15:42;4.55;;;3.75;;
20855;SDS011;63058;49.424;8.420;2023-07-24T13:18:08;4.93;;;3.72;;
20855;SDS011;63058;49.424;8.420;2023-07-24T13:20:33;5.30;;;3.10;;
20855;SDS011;63058;49.424;8.420;2023-07-24T13:22:59;5.22;;;3.20;;
20855;SDS011;63058;49.424;8.420;2023-07-24T13:25:24;5.20;;;3.10;;
20855;SDS011;63058;49.424;8.420;2023-07-24T13:27:50;3.60;;;3.22;;
20855;SDS011;63058;49.424;8.420;2023-07-24T13:30:16;3.90;;;3.22;;
20855;SDS011;63058;49.424;8.420;2023-07-24T13:32:43;3.17;;;2.85;;
20855;SDS011;63058;49.424;8.420;2023-07-24T13:35:08;3.72;;;3.40;;
20855;SDS011;63058;49.424;8.420;2023-07-24T13:37:34;3.95;;;3.58;;
20855;SDS011;63058;49.424;8.420;2023-07-24T13:40:00;3.83;;;3.42;;
20855;SDS011;63058;49.424;8.420;2023-07-24T13:42:25;4.28;;;3.63;;
20855;SDS011;63058;49.424;8.420;2023-07-24T13:44:51;4.07;;;3.40;;
20855;SDS011;63058;49.424;8.420;2023-07-24T13:47:16;4.47;;;3.67;;
20855;SDS011;63058;49.424;8.420;2023-07-24T13:49:42;4.53;;;3.28;;
20855;SDS011;63058;49.424;8.420;2023-07-24T13:52:08;6.07;;;3.72;;
20855;SDS011;63058;49.424;8.420;2023-07-24T13:54:33;5.03;;;3.58;;
20855;SDS011;63058;49.424;8.420;2023-07-24T13:56:59;5.18;;;3.35;;
20855;SDS011;63058;49.424;8.420;2023-07-24T13:59:24;4.03;;;3.53;;
20855;SDS011;63058;49.424;8.420;2023-07-24T14:01:50;4.40;;;3.58;;
20855;SDS011;63058;49.424;8.420;2023-07-24T14:04:15;3.35;;;3.00;;
20855;SDS011;63058;49.424;8.420;2023-07-24T14:06:41;5.30;;;4.00;;
20855;SDS011;63058;49.424;8.420;2023-07-24T14:09:06;4.28;;;2.97;;
20855;SDS011;63058;49.424;8.420;2023-07-24T14:11:32;5.78;;;3.50;;
20855;SDS011;63058;49.424;8.420;2023-07-24T14:13:57;8.10;;;3.92;;
20855;SDS011;63058;49.424;8.420;2023-07-24T14:16:23;7.35;;;3.58;;
20855;SDS011;63058;49.424;8.420;2023-07-24T14:18:48;5.85;;;4.03;;
20855;SDS011;63058;49.424;8.420;2023-07-24T14:21:14;6.50;;;3.75;;
20855;SDS011;63058;49.424;8.420;2023-07-24T14:23:39;6.68;;;3.97;;
20855;SDS011;63058;49.424;8.420;2023-07-24T14:26:05;6.07;;;4.05;;
20855;SDS011;63058;49.424;8.420;2023-07-24T14:28:30;10.63;;;5.40;;
20855;SDS011;63058;49.424;8.420;2023-07-24T14:30:57;9.30;;;5.22;;
20855;SDS011;63058;49.424;8.420;2023-07-24T14:33:22;10.75;;;5.43;;
20855;SDS011;63058;49.424;8.420;2023-07-24T14:35:48;7.53;;;5.38;;
20855;SDS011;63058;49.424;8.420;2023-07-24T14:38:14;8.32;;;4.93;;
20855;SDS011;63058;49.424;8.420;2023-07-24T14:40:39;9.63;;;5.18;;
20855;SDS011;63058;49.424;8.420;2023-07-24T14:43:05;7.38;;;4.85;;
20855;SDS011;63058;49.424;8.420;2023-07-24T14:45:30;8.57;;;4.97;;
20855;SDS011;63058;49.424;8.420;2023-07-24T14:47:56;5.95;;;4.35;;
20855;SDS011;63058;49.424;8.420;2023-07-24T14:50:22;7.30;;;4.80;;
20855;SDS011;63058;49.424;8.420;2023-07-24T14:52:47;8.25;;;4.63;;